createdAt,value
2023-03-19T00:01:11.308Z,15.60
2023-03-19T00:03:39.434Z,15.50
2023-03-19T00:06:08.002Z,15.30
2023-03-19T00:08:36.784Z,15.20
2023-03-19T00:11:08.660Z,15.50
2023-03-19T00:13:37.034Z,15.70
2023-03-19T00:16:06.989Z,15.50
2023-03-19T00:18:35.977Z,15.60
2023-03-19T00:21:04.072Z,15.80
2023-03-19T00:23:32.278Z,15.70
2023-03-19T00:26:01.146Z,15.90
2023-03-19T00:28:30.814Z,15.90
2023-03-19T00:30:59.626Z,15.90
2023-03-19T00:33:29.345Z,15.90
2023-03-19T00:35:59.070Z,15.70
2023-03-19T00:38:27.106Z,15.80
2023-03-19T00:40:56.810Z,16.00
2023-03-19T00:43:27.021Z,16.00
2023-03-19T00:45:55.433Z,16.10
2023-03-19T00:48:23.463Z,16.20
2023-03-19T00:50:53.569Z,15.90
2023-03-19T00:53:24.138Z,15.90
2023-03-19T00:55:53.904Z,15.90
2023-03-19T00:58:22.108Z,15.70
2023-03-19T01:00:53.477Z,15.80
2023-03-19T01:03:21.780Z,15.90
2023-03-19T01:08:19.609Z,16.10
2023-03-19T01:10:47.638Z,16.20
2023-03-19T01:13:16.392Z,16.30
2023-03-19T01:15:45.409Z,16.40
2023-03-19T01:18:16.914Z,16.40
2023-03-19T01:20:46.828Z,16.50
2023-03-19T01:23:15.272Z,16.60
2023-03-19T01:25:44.658Z,16.70
2023-03-19T01:28:13.066Z,16.60
2023-03-19T01:30:42.214Z,16.60
2023-03-19T01:33:37.339Z,16.60
2023-03-19T01:36:13.038Z,16.70
2023-03-19T01:39:01.996Z,16.70
2023-03-19T01:41:32.012Z,16.70
2023-03-19T01:44:27.887Z,16.80
2023-03-19T01:47:20.266Z,16.80
2023-03-19T01:50:22.949Z,16.70
2023-03-19T01:52:54.803Z,16.80
2023-03-19T01:55:52.782Z,16.70
2023-03-19T01:58:38.240Z,16.50
2023-03-19T02:01:20.982Z,16.50
2023-03-19T02:03:53.616Z,16.30
2023-03-19T02:06:31.709Z,16.30
2023-03-19T02:09:01.132Z,16.20
2023-03-19T02:11:29.766Z,16.20
2023-03-19T02:14:00.246Z,16.20
2023-03-19T02:16:28.569Z,16.30
2023-03-19T02:18:59.033Z,16.30
2023-03-19T02:21:27.679Z,16.40
2023-03-19T02:24:03.568Z,16.40
2023-03-19T02:27:01.692Z,16.40
2023-03-19T02:29:31.081Z,16.30
2023-03-19T02:32:03.946Z,16.10
2023-03-19T02:34:41.880Z,16.20
2023-03-19T02:37:15.902Z,16.20
2023-03-19T02:39:57.869Z,16.20
2023-03-19T02:42:29.781Z,16.30
2023-03-19T02:45:02.073Z,16.30
2023-03-19T02:47:31.621Z,16.30
2023-03-19T02:49:59.626Z,16.40
2023-03-19T02:52:27.736Z,16.50
2023-03-19T02:54:56.114Z,16.50
2023-03-19T02:57:27.399Z,16.60
2023-03-19T02:59:56.308Z,16.50
2023-03-19T03:02:25.990Z,16.40
2023-03-19T03:04:54.858Z,16.40
2023-03-19T03:07:23.015Z,16.40
2023-03-19T03:09:51.065Z,16.30
2023-03-19T03:12:19.953Z,16.00
2023-03-19T03:14:49.528Z,15.50
2023-03-19T03:17:21.898Z,15.40
2023-03-19T03:19:50.491Z,15.60
2023-03-19T03:22:21.085Z,15.70
2023-03-19T03:24:50.350Z,16.00
2023-03-19T03:27:18.736Z,16.20
2023-03-19T03:29:46.842Z,16.30
2023-03-19T03:32:17.156Z,16.20
2023-03-19T03:34:46.997Z,16.40
2023-03-19T03:37:15.209Z,16.30
2023-03-19T03:39:43.194Z,16.40
2023-03-19T03:42:13.433Z,16.40
2023-03-19T03:44:42.426Z,16.30
2023-03-19T03:47:11.471Z,16.40
2023-03-19T03:49:42.955Z,16.30
2023-03-19T03:52:11.264Z,16.40
2023-03-19T03:54:40.156Z,16.30
2023-03-19T03:57:09.116Z,16.10
2023-03-19T03:59:38.172Z,16.00
2023-03-19T04:02:06.618Z,16.00
2023-03-19T04:04:35.214Z,16.10
2023-03-19T04:07:05.030Z,16.10
2023-03-19T04:10:02.557Z,15.90
2023-03-19T04:12:31.303Z,15.50
2023-03-19T04:14:59.962Z,15.60
2023-03-19T04:17:29.192Z,15.70
2023-03-19T04:19:58.240Z,15.60
2023-03-19T04:22:29.210Z,15.70
2023-03-19T04:24:57.262Z,15.80
2023-03-19T04:27:25.598Z,15.80
2023-03-19T04:29:55.116Z,15.80
2023-03-19T04:32:25.061Z,15.90
2023-03-19T04:34:54.958Z,15.90
2023-03-19T04:37:23.688Z,15.80
2023-03-19T04:39:55.699Z,15.80
2023-03-19T04:42:25.197Z,15.60
2023-03-19T04:45:01.845Z,15.50
2023-03-19T04:47:30.932Z,15.40
2023-03-19T04:50:02.337Z,15.60
2023-03-19T04:52:33.813Z,15.70
2023-03-19T04:55:06.454Z,15.70
2023-03-19T04:57:45.853Z,15.50
2023-03-19T05:00:16.115Z,15.50
2023-03-19T05:02:47.008Z,15.50
2023-03-19T05:05:16.852Z,15.30
2023-03-19T05:07:45.586Z,15.20
2023-03-19T05:10:15.763Z,15.30
2023-03-19T05:12:45.246Z,15.30
2023-03-19T05:15:13.500Z,15.20
2023-03-19T05:18:01.759Z,15.10
2023-03-19T05:20:42.966Z,15.10
2023-03-19T05:23:23.509Z,15.00
2023-03-19T05:26:03.990Z,15.00
2023-03-19T05:28:51.606Z,15.10
2023-03-19T05:31:24.959Z,15.00
2023-03-19T05:33:55.556Z,15.10
2023-03-19T05:36:25.977Z,15.10
2023-03-19T05:39:08.998Z,15.30
2023-03-19T05:41:40.865Z,15.40
2023-03-19T05:44:10.346Z,15.60
2023-03-19T05:47:01.596Z,15.70
2023-03-19T05:49:34.107Z,15.80
2023-03-19T05:52:02.205Z,16.00
2023-03-19T05:54:30.918Z,15.90
2023-03-19T05:57:06.392Z,16.10
2023-03-19T05:59:49.223Z,15.80
2023-03-19T06:02:35.908Z,15.70
2023-03-19T06:05:28.316Z,15.80
2023-03-19T06:08:01.194Z,15.70
2023-03-19T06:10:49.716Z,15.70
2023-03-19T06:13:20.113Z,15.70
2023-03-19T06:16:14.229Z,15.70
2023-03-19T06:18:56.122Z,15.60
2023-03-19T06:21:31.203Z,15.20
2023-03-19T06:24:03.356Z,15.30
2023-03-19T06:26:37.257Z,15.20
2023-03-19T06:29:14.105Z,15.50
2023-03-19T06:31:44.943Z,15.50
2023-03-19T06:34:24.679Z,15.40
2023-03-19T06:36:53.749Z,15.30
2023-03-19T06:39:25.037Z,15.30
2023-03-19T06:41:54.269Z,15.20
2023-03-19T06:44:27.697Z,15.00
2023-03-19T06:46:57.492Z,15.10
2023-03-19T06:49:25.584Z,15.20
2023-03-19T06:51:55.548Z,15.20
2023-03-19T06:54:24.404Z,14.90
2023-03-19T06:56:52.451Z,15.00
2023-03-19T06:59:20.745Z,15.10
2023-03-19T07:01:51.507Z,15.10
2023-03-19T07:04:20.203Z,15.30
2023-03-19T07:06:48.723Z,15.30
2023-03-19T07:09:17.142Z,15.30
2023-03-19T07:11:45.439Z,15.30
2023-03-19T07:14:14.081Z,15.30
2023-03-19T07:16:43.132Z,14.90
2023-03-19T07:19:12.509Z,15.10
2023-03-19T07:21:41.740Z,15.00
2023-03-19T07:24:09.929Z,15.20
2023-03-19T07:26:38.426Z,15.40
2023-03-19T07:29:06.484Z,15.40
2023-03-19T07:31:34.826Z,15.50
2023-03-19T07:34:03.558Z,15.30
2023-03-19T07:36:33.140Z,15.40
2023-03-19T07:39:02.067Z,14.90
2023-03-19T07:41:32.096Z,14.90
2023-03-19T07:44:00.738Z,15.20
2023-03-19T07:46:29.023Z,15.30
2023-03-19T07:48:57.376Z,15.30
2023-03-19T07:51:25.347Z,15.00
2023-03-19T07:53:55.737Z,14.90
2023-03-19T07:56:24.855Z,15.00
2023-03-19T07:58:53.021Z,15.40
2023-03-19T08:01:21.412Z,15.40
2023-03-19T08:03:49.713Z,15.20
2023-03-19T08:06:17.773Z,15.30
2023-03-19T08:08:46.049Z,15.50
2023-03-19T08:11:15.721Z,15.20
2023-03-19T08:13:44.303Z,15.40
2023-03-19T08:16:13.421Z,15.20
2023-03-19T08:18:43.765Z,15.20
2023-03-19T08:21:11.789Z,15.30
2023-03-19T08:23:40.268Z,15.20
2023-03-19T08:26:09.408Z,15.50
2023-03-19T08:28:39.016Z,15.60
2023-03-19T08:31:11.747Z,15.80
2023-03-19T08:33:40.847Z,15.80
2023-03-19T08:36:11.374Z,15.70
2023-03-19T08:38:39.757Z,15.10
2023-03-19T08:41:08.033Z,15.10
2023-03-19T08:43:38.336Z,15.00
2023-03-19T08:46:07.426Z,15.30
2023-03-19T08:48:41.443Z,15.60
2023-03-19T08:51:10.764Z,15.50
2023-03-19T08:53:39.913Z,15.10
2023-03-19T08:56:09.022Z,15.40
2023-03-19T08:58:38.380Z,15.40
2023-03-19T09:01:10.556Z,15.40
2023-03-19T09:03:38.866Z,15.50
2023-03-19T09:06:09.368Z,15.30
2023-03-19T09:08:39.258Z,15.20
2023-03-19T09:11:08.773Z,15.10
2023-03-19T09:13:40.947Z,15.30
2023-03-19T09:16:09.602Z,15.00
2023-03-19T09:18:37.906Z,14.70
2023-03-19T09:21:06.282Z,14.80
2023-03-19T09:23:35.025Z,14.80
2023-03-19T09:26:03.211Z,14.70
2023-03-19T09:28:31.593Z,14.60
2023-03-19T09:31:07.380Z,14.40
2023-03-19T09:33:35.490Z,14.20
2023-03-19T09:36:03.699Z,14.50
2023-03-19T09:38:39.265Z,14.80
2023-03-19T09:41:14.383Z,14.50
2023-03-19T09:43:57.193Z,14.30
2023-03-19T09:46:37.654Z,14.70
2023-03-19T09:49:14.145Z,14.70
2023-03-19T09:51:53.566Z,14.80
2023-03-19T09:54:33.596Z,14.80
2023-03-19T09:57:03.514Z,14.70
2023-03-19T09:59:31.854Z,14.60
2023-03-19T10:02:22.146Z,14.40
2023-03-19T10:05:05.386Z,14.60
2023-03-19T10:07:59.348Z,14.90
2023-03-19T10:10:56.030Z,15.00
2023-03-19T10:13:40.127Z,15.10
2023-03-19T10:16:16.625Z,15.20
2023-03-19T10:18:51.344Z,15.20
2023-03-19T10:21:28.162Z,15.30
2023-03-19T10:24:02.088Z,15.40
2023-03-19T10:26:34.463Z,15.20
2023-03-19T10:29:08.275Z,15.40
2023-03-19T10:31:45.445Z,15.50
2023-03-19T10:34:31.118Z,15.40
2023-03-19T10:37:01.973Z,15.60
2023-03-19T10:39:31.828Z,16.00
2023-03-19T10:42:11.342Z,16.20
2023-03-19T10:44:45.603Z,15.90
2023-03-19T10:47:15.946Z,16.00
2023-03-19T10:49:45.547Z,16.00
2023-03-19T10:52:24.040Z,15.80
2023-03-19T10:55:18.421Z,15.90
2023-03-19T10:57:50.497Z,16.10
2023-03-19T11:00:22.182Z,16.50
2023-03-19T11:02:54.747Z,16.60
2023-03-19T11:05:31.821Z,16.70
2023-03-19T11:08:02.915Z,16.70
2023-03-19T11:10:34.202Z,16.40
2023-03-19T11:13:05.961Z,16.50
2023-03-19T11:15:38.067Z,16.50
2023-03-19T11:18:17.211Z,16.50
2023-03-19T11:20:52.121Z,16.50
2023-03-19T11:23:21.214Z,16.80
2023-03-19T11:25:54.217Z,16.70
2023-03-19T11:28:26.673Z,16.60
2023-03-19T11:31:03.521Z,16.60
2023-03-19T11:36:46.430Z,16.70
2023-03-19T11:39:25.496Z,16.60
2023-03-19T11:42:30.251Z,16.40
2023-03-19T11:45:11.865Z,16.30
2023-03-19T11:47:48.769Z,16.30
2023-03-19T11:50:31.226Z,16.20
2023-03-19T11:53:12.090Z,16.30
2023-03-19T11:55:45.489Z,16.50
2023-03-19T11:58:50.855Z,16.60
2023-03-19T12:01:35.189Z,16.60
2023-03-19T12:04:21.660Z,16.80
2023-03-19T12:07:03.182Z,16.80
2023-03-19T12:09:40.740Z,16.70
2023-03-19T12:12:18.449Z,16.70
2023-03-19T12:15:04.847Z,16.90
2023-03-19T12:17:46.412Z,17.30
2023-03-19T12:20:29.686Z,17.60
2023-03-19T12:23:16.281Z,17.90
2023-03-19T12:26:05.682Z,17.90
2023-03-19T12:28:39.555Z,17.60
2023-03-19T12:31:43.277Z,17.00
2023-03-19T12:34:23.806Z,16.20
2023-03-19T12:37:26.809Z,15.60
2023-03-19T12:40:14.985Z,15.20
2023-03-19T12:42:45.008Z,15.10
2023-03-19T12:45:27.369Z,14.90
2023-03-19T12:48:03.458Z,14.90
2023-03-19T12:50:35.362Z,15.10
2023-03-19T12:53:12.727Z,15.10
2023-03-19T12:55:46.990Z,15.30
2023-03-19T12:58:23.482Z,15.50
2023-03-19T13:00:59.023Z,15.40
2023-03-19T13:03:34.797Z,15.50
2023-03-19T13:06:10.002Z,15.60
2023-03-19T13:08:44.751Z,15.80
2023-03-19T13:11:18.620Z,16.00
2023-03-19T13:13:52.779Z,15.90
2023-03-19T13:16:35.045Z,16.10
2023-03-19T13:19:11.403Z,16.20
2023-03-19T13:21:42.682Z,16.50
2023-03-19T13:24:21.222Z,16.80
2023-03-19T13:26:50.875Z,17.00
2023-03-19T13:29:25.065Z,17.20
2023-03-19T13:32:01.430Z,17.30
2023-03-19T13:34:34.271Z,17.50
2023-03-19T13:37:08.630Z,17.40
2023-03-19T13:39:38.726Z,17.40
2023-03-19T13:42:38.699Z,17.30
2023-03-19T13:45:30.119Z,17.30
2023-03-19T13:48:01.112Z,16.90
2023-03-19T13:50:51.136Z,16.70
2023-03-19T13:53:34.538Z,16.50
2023-03-19T13:56:12.721Z,16.40
2023-03-19T13:58:53.026Z,16.10
2023-03-19T14:01:40.979Z,16.20
2023-03-19T14:04:20.340Z,16.60
2023-03-19T14:06:50.420Z,16.90
2023-03-19T14:09:35.800Z,17.00
2023-03-19T14:12:22.789Z,17.20
2023-03-19T14:14:53.868Z,17.20
2023-03-19T14:17:27.679Z,17.30
2023-03-19T14:19:59.303Z,17.20
2023-03-19T14:22:37.156Z,17.10
2023-03-19T14:25:17.660Z,17.10
2023-03-19T14:27:50.231Z,16.90
2023-03-19T14:30:30.812Z,17.10
2023-03-19T14:33:08.456Z,17.10
2023-03-19T14:35:41.408Z,17.10
2023-03-19T14:38:16.743Z,17.30
2023-03-19T14:40:47.911Z,17.20
2023-03-19T14:43:28.741Z,17.40
2023-03-19T14:46:03.922Z,17.40
2023-03-19T14:49:05.279Z,17.60
2023-03-19T14:51:58.758Z,17.70
2023-03-19T14:54:36.921Z,17.80
2023-03-19T14:57:11.127Z,17.80
2023-03-19T14:59:40.541Z,17.90
2023-03-19T15:02:28.403Z,17.90
2023-03-19T15:05:00.709Z,18.00
2023-03-19T15:07:33.249Z,17.80
2023-03-19T15:10:06.428Z,17.70
2023-03-19T15:13:09.541Z,17.40
2023-03-19T15:16:17.689Z,17.20
2023-03-19T15:18:46.639Z,17.30
2023-03-19T15:21:16.463Z,17.30
2023-03-19T15:23:47.313Z,17.40
2023-03-19T15:26:22.678Z,17.40
2023-03-19T15:28:54.057Z,17.50
2023-03-19T15:31:33.642Z,17.50
2023-03-19T15:34:23.592Z,17.50
2023-03-19T15:36:56.252Z,17.50
2023-03-19T15:39:28.185Z,17.50
2023-03-19T15:41:58.165Z,17.20
2023-03-19T15:44:33.811Z,17.20
2023-03-19T15:47:04.750Z,17.30
2023-03-19T15:49:38.421Z,17.00
2023-03-19T15:52:14.567Z,16.90
2023-03-19T15:54:43.683Z,16.90
2023-03-19T15:57:15.489Z,17.00
2023-03-19T15:59:44.032Z,16.80
2023-03-19T16:02:19.559Z,16.90
2023-03-19T16:05:13.980Z,16.60
2023-03-19T16:07:44.735Z,16.70
2023-03-19T16:10:39.707Z,17.00
2023-03-19T16:13:32.490Z,16.90
2023-03-19T16:16:08.584Z,16.90
2023-03-19T16:21:39.421Z,17.40
2023-03-19T16:24:25.041Z,17.30
2023-03-19T16:26:55.378Z,17.30
2023-03-19T16:29:26.441Z,17.30
2023-03-19T16:32:00.294Z,17.30
2023-03-19T16:34:38.577Z,17.30
2023-03-19T16:37:39.821Z,17.20
2023-03-19T16:40:44.786Z,17.10
2023-03-19T16:43:19.053Z,17.10
2023-03-19T16:45:51.565Z,17.10
2023-03-19T16:48:20.174Z,17.10
2023-03-19T16:50:50.014Z,17.20
2023-03-19T16:53:28.079Z,17.20
2023-03-19T16:55:59.457Z,17.30
2023-03-19T16:58:32.891Z,17.20
2023-03-19T17:01:01.038Z,17.20
2023-03-19T17:03:30.578Z,17.30
2023-03-19T17:05:58.847Z,17.00
2023-03-19T17:08:27.111Z,17.10
2023-03-19T17:10:57.096Z,17.10
2023-03-19T17:13:30.008Z,17.10
2023-03-19T17:16:06.447Z,17.10
2023-03-19T17:18:36.582Z,17.10
2023-03-19T17:21:11.587Z,17.20
2023-03-19T17:23:40.071Z,17.20
2023-03-19T17:26:16.449Z,17.10
2023-03-19T17:28:46.440Z,17.30
2023-03-19T17:31:26.911Z,17.30
2023-03-19T17:33:59.804Z,17.30
2023-03-19T17:36:27.859Z,17.20
2023-03-19T17:38:58.595Z,17.10
2023-03-19T17:41:27.987Z,16.90
2023-03-19T17:43:56.019Z,16.90
2023-03-19T17:46:27.013Z,16.90
2023-03-19T17:48:57.678Z,16.90
2023-03-19T17:51:26.086Z,17.00
2023-03-19T17:53:56.036Z,17.00
2023-03-19T17:56:25.993Z,17.00
2023-03-19T17:58:55.883Z,16.90
2023-03-19T18:01:27.987Z,16.70
2023-03-19T18:03:58.564Z,16.70
2023-03-19T18:06:31.814Z,16.70
2023-03-19T18:09:01.468Z,16.70
2023-03-19T18:11:29.524Z,16.80
2023-03-19T18:13:59.300Z,16.80
2023-03-19T18:16:29.119Z,16.90
2023-03-19T18:19:02.237Z,16.80
2023-03-19T18:21:31.439Z,16.90
2023-03-19T18:23:59.908Z,16.70
2023-03-19T18:26:31.701Z,16.70
2023-03-19T18:29:04.197Z,16.60
2023-03-19T18:31:32.304Z,16.50
2023-03-19T18:34:06.642Z,16.60
2023-03-19T18:36:36.084Z,16.60
2023-03-19T18:39:05.480Z,16.70
2023-03-19T18:41:33.608Z,16.80
2023-03-19T18:44:07.715Z,16.90
2023-03-19T18:46:37.481Z,16.90
2023-03-19T18:49:07.427Z,16.80
2023-03-19T18:51:35.455Z,16.80
2023-03-19T18:54:03.824Z,16.90
2023-03-19T18:56:36.724Z,16.70
2023-03-19T18:59:11.246Z,16.70
2023-03-19T19:01:39.282Z,16.80
2023-03-19T19:04:08.057Z,16.80
2023-03-19T19:06:47.180Z,16.70
2023-03-19T19:09:16.768Z,16.90
2023-03-19T19:11:47.902Z,16.90
2023-03-19T19:14:22.306Z,16.90
2023-03-19T19:16:51.775Z,16.90
2023-03-19T19:19:22.491Z,17.00
2023-03-19T19:21:50.929Z,17.10
2023-03-19T19:24:19.296Z,17.10
2023-03-19T19:26:50.860Z,17.10
2023-03-19T19:29:24.782Z,17.10
2023-03-19T19:31:54.256Z,17.20
2023-03-19T19:34:23.275Z,17.20
2023-03-19T19:36:52.845Z,17.20
2023-03-19T19:39:21.389Z,17.10
2023-03-19T19:41:49.863Z,16.90
2023-03-19T19:44:23.249Z,16.80
2023-03-19T19:46:54.405Z,16.90
2023-03-19T19:49:23.573Z,16.90
2023-03-19T19:51:52.660Z,16.90
2023-03-19T19:54:21.644Z,17.00
2023-03-19T19:56:52.035Z,16.90
2023-03-19T19:59:26.019Z,16.80
2023-03-19T20:01:54.148Z,16.60
2023-03-19T20:04:23.077Z,16.50
2023-03-19T20:06:52.109Z,16.60
2023-03-19T20:09:20.141Z,16.70
2023-03-19T20:11:49.645Z,16.70
2023-03-19T20:14:17.659Z,16.60
2023-03-19T20:16:47.373Z,16.50
2023-03-19T20:19:20.410Z,16.10
2023-03-19T20:21:49.345Z,15.90
2023-03-19T20:24:19.536Z,15.40
2023-03-19T20:26:47.586Z,15.10
2023-03-19T20:29:17.397Z,14.70
2023-03-19T20:31:47.761Z,14.40
2023-03-19T20:34:28.721Z,14.30
2023-03-19T20:37:04.833Z,14.10
2023-03-19T20:39:32.851Z,14.10
2023-03-19T20:42:01.684Z,14.00
2023-03-19T20:44:31.594Z,14.00
2023-03-19T20:47:01.205Z,14.10
2023-03-19T20:49:31.451Z,14.00
2023-03-19T20:51:59.451Z,14.00
2023-03-19T20:54:27.920Z,14.00
2023-03-19T20:56:56.293Z,14.10
2023-03-19T20:59:28.084Z,14.10
2023-03-19T21:01:56.373Z,14.20
2023-03-19T21:04:26.671Z,14.20
2023-03-19T21:06:54.692Z,14.30
2023-03-19T21:09:25.943Z,14.40
2023-03-19T21:11:53.983Z,14.50
2023-03-19T21:14:26.837Z,14.70
2023-03-19T21:16:55.848Z,14.80
2023-03-19T21:19:26.549Z,14.90
2023-03-19T21:21:56.236Z,15.10
2023-03-19T21:24:25.712Z,15.20
2023-03-19T21:26:56.485Z,15.20
2023-03-19T21:29:30.156Z,15.30
2023-03-19T21:31:59.319Z,15.50
2023-03-19T21:34:28.712Z,15.60
2023-03-19T21:36:59.602Z,15.80
2023-03-19T21:39:32.798Z,15.80
2023-03-19T21:42:02.651Z,15.90
2023-03-19T21:44:31.260Z,15.80
2023-03-19T21:47:01.769Z,15.90
2023-03-19T21:49:30.306Z,15.70
2023-03-19T21:52:00.113Z,15.30
2023-03-19T21:54:28.622Z,15.10
2023-03-19T21:56:56.856Z,15.10
2023-03-19T21:59:28.691Z,15.40
2023-03-19T22:02:00.681Z,15.50
2023-03-19T22:04:28.744Z,15.50
2023-03-19T22:06:57.332Z,15.60
2023-03-19T22:09:26.776Z,15.80
2023-03-19T22:11:54.826Z,15.90
2023-03-19T22:14:27.454Z,16.10
2023-03-19T22:16:57.540Z,16.00
2023-03-19T22:19:28.097Z,15.80
2023-03-19T22:22:01.454Z,15.60
2023-03-19T22:24:30.895Z,15.60
2023-03-19T22:26:59.902Z,15.50
2023-03-19T22:29:29.179Z,15.30
2023-03-19T22:31:58.034Z,15.20
2023-03-19T22:34:28.545Z,14.90
2023-03-19T22:36:59.190Z,15.00
2023-03-19T22:39:29.640Z,14.90
2023-03-19T22:42:01.069Z,15.00
2023-03-19T22:44:32.589Z,15.00
2023-03-19T22:47:02.759Z,15.10
2023-03-19T22:49:33.614Z,14.70
2023-03-19T22:52:02.240Z,14.40
2023-03-19T22:54:30.408Z,14.30
2023-03-19T22:57:00.860Z,14.20
2023-03-19T22:59:29.765Z,14.20
2023-03-19T23:01:58.653Z,13.90
2023-03-19T23:04:30.424Z,14.00
2023-03-19T23:07:00.707Z,14.10
2023-03-19T23:09:31.587Z,14.10
2023-03-19T23:12:01.548Z,14.30
2023-03-19T23:14:31.409Z,14.10
2023-03-19T23:17:03.057Z,14.00
2023-03-19T23:19:35.542Z,13.70
2023-03-19T23:22:05.971Z,13.60
2023-03-19T23:24:35.712Z,13.70
2023-03-19T23:27:05.934Z,13.90
2023-03-19T23:29:36.988Z,13.90
2023-03-19T23:32:06.554Z,14.00
2023-03-19T23:34:42.517Z,14.00
2023-03-19T23:37:18.525Z,14.20
2023-03-19T23:39:47.540Z,14.10
2023-03-19T23:42:27.857Z,14.10
2023-03-19T23:44:58.548Z,14.20
2023-03-19T23:47:30.128Z,13.70
2023-03-19T23:49:58.554Z,13.70
2023-03-19T23:52:26.552Z,13.70
2023-03-19T23:54:56.885Z,13.80
2023-03-19T23:57:27.401Z,13.90
2023-03-19T23:59:55.610Z,13.80
